Terminal Aerodrome Forecast
Issued by NWS

Home | Current Version | Previous Version | Text Only | Print | Product List | Glossary On
Versions: 1 2 3 4 5 6 7 8 9 10 11 12 13
000
FTAK31 PANC 242323
TAFAAQ
TAF
PAAQ 242323Z 2500/2524 14017G25KT P6SM OVC100
     FM250600 13010KT P6SM OVC090
     FM251000 VRB05KT P6SM BKN100
     FM252100 15014G20KT P6SM SCT100 BKN200=

USA.gov is the U.S. government's official web portal to all federal, state and local government web resources and services.